sensor_id;sensor_type;location;lat;lon;timestamp;P1;durP1;ratioP1;P2;durP2;ratioP2
66741;SDS011;53654;54.152;19.432;2023-10-08T00:01:21;1.30;;;0.70;;
66741;SDS011;53654;54.152;19.432;2023-10-08T00:03:49;1.60;;;0.70;;
66741;SDS011;53654;54.152;19.432;2023-10-08T00:06:20;1.40;;;0.80;;
66741;SDS011;53654;54.152;19.432;2023-10-08T00:08:51;2.40;;;0.70;;
66741;SDS011;53654;54.152;19.432;2023-10-08T00:11:19;2.00;;;0.90;;
66741;SDS011;53654;54.152;19.432;2023-10-08T00:13:50;1.40;;;1.00;;
66741;SDS011;53654;54.152;19.432;2023-10-08T00:16:23;1.10;;;0.70;;
66741;SDS011;53654;54.152;19.432;2023-10-08T00:18:52;1.10;;;0.70;;
66741;SDS011;53654;54.152;19.432;2023-10-08T00:21:21;1.70;;;0.70;;
66741;SDS011;53654;54.152;19.432;2023-10-08T00:23:56;1.00;;;0.70;;
66741;SDS011;53654;54.152;19.432;2023-10-08T00:26:27;2.60;;;1.10;;
66741;SDS011;53654;54.152;19.432;2023-10-08T00:29:03;1.70;;;1.00;;
66741;SDS011;53654;54.152;19.432;2023-10-08T00:31:44;1.10;;;0.80;;
66741;SDS011;53654;54.152;19.432;2023-10-08T00:34:13;1.30;;;0.80;;
66741;SDS011;53654;54.152;19.432;2023-10-08T00:36:45;2.50;;;0.80;;
66741;SDS011;53654;54.152;19.432;2023-10-08T00:39:18;1.60;;;1.00;;
66741;SDS011;53654;54.152;19.432;2023-10-08T00:41:52;1.10;;;0.70;;
66741;SDS011;53654;54.152;19.432;2023-10-08T00:44:33;1.50;;;0.70;;
66741;SDS011;53654;54.152;19.432;2023-10-08T00:47:19;1.20;;;0.70;;
66741;SDS011;53654;54.152;19.432;2023-10-08T00:49:53;1.50;;;0.80;;
66741;SDS011;53654;54.152;19.432;2023-10-08T00:52:31;1.40;;;0.90;;
66741;SDS011;53654;54.152;19.432;2023-10-08T00:55:13;1.90;;;1.00;;
66741;SDS011;53654;54.152;19.432;2023-10-08T00:57:50;1.30;;;0.70;;
66741;SDS011;53654;54.152;19.432;2023-10-08T01:00:25;1.60;;;0.80;;
66741;SDS011;53654;54.152;19.432;2023-10-08T01:03:00;2.00;;;0.80;;
66741;SDS011;53654;54.152;19.432;2023-10-08T01:05:30;1.90;;;0.80;;
66741;SDS011;53654;54.152;19.432;2023-10-08T01:08:10;2.40;;;0.60;;
66741;SDS011;53654;54.152;19.432;2023-10-08T01:10:50;1.50;;;0.80;;
66741;SDS011;53654;54.152;19.432;2023-10-08T01:13:30;2.00;;;0.70;;
66741;SDS011;53654;54.152;19.432;2023-10-08T01:16:04;1.30;;;0.80;;
66741;SDS011;53654;54.152;19.432;2023-10-08T01:18:32;2.10;;;0.70;;
66741;SDS011;53654;54.152;19.432;2023-10-08T01:21:04;0.80;;;0.70;;
66741;SDS011;53654;54.152;19.432;2023-10-08T01:23:39;2.40;;;0.90;;
66741;SDS011;53654;54.152;19.432;2023-10-08T01:26:07;1.40;;;0.70;;
66741;SDS011;53654;54.152;19.432;2023-10-08T01:28:39;1.20;;;0.80;;
66741;SDS011;53654;54.152;19.432;2023-10-08T01:31:08;0.90;;;0.70;;
66741;SDS011;53654;54.152;19.432;2023-10-08T01:33:40;1.10;;;0.80;;
66741;SDS011;53654;54.152;19.432;2023-10-08T01:36:21;0.80;;;0.60;;
66741;SDS011;53654;54.152;19.432;2023-10-08T01:38:51;1.70;;;0.90;;
66741;SDS011;53654;54.152;19.432;2023-10-08T01:41:20;1.70;;;0.70;;
66741;SDS011;53654;54.152;19.432;2023-10-08T01:43:58;1.20;;;0.80;;
66741;SDS011;53654;54.152;19.432;2023-10-08T01:46:26;2.10;;;0.80;;
66741;SDS011;53654;54.152;19.432;2023-10-08T01:48:56;1.40;;;0.90;;
66741;SDS011;53654;54.152;19.432;2023-10-08T01:51:32;1.70;;;0.70;;
66741;SDS011;53654;54.152;19.432;2023-10-08T01:54:07;2.60;;;0.80;;
66741;SDS011;53654;54.152;19.432;2023-10-08T01:56:40;1.60;;;0.90;;
66741;SDS011;53654;54.152;19.432;2023-10-08T01:59:11;1.20;;;0.70;;
66741;SDS011;53654;54.152;19.432;2023-10-08T02:01:43;1.40;;;0.80;;
66741;SDS011;53654;54.152;19.432;2023-10-08T02:04:13;2.00;;;0.80;;
66741;SDS011;53654;54.152;19.432;2023-10-08T02:06:44;0.80;;;0.60;;
66741;SDS011;53654;54.152;19.432;2023-10-08T02:09:14;0.80;;;0.70;;
66741;SDS011;53654;54.152;19.432;2023-10-08T02:11:44;1.10;;;0.60;;
66741;SDS011;53654;54.152;19.432;2023-10-08T02:14:14;0.70;;;0.70;;
66741;SDS011;53654;54.152;19.432;2023-10-08T02:16:43;1.40;;;0.80;;
66741;SDS011;53654;54.152;19.432;2023-10-08T02:19:12;1.70;;;0.90;;
66741;SDS011;53654;54.152;19.432;2023-10-08T02:21:42;1.20;;;0.80;;
66741;SDS011;53654;54.152;19.432;2023-10-08T02:24:10;1.50;;;0.80;;
66741;SDS011;53654;54.152;19.432;2023-10-08T02:26:39;2.00;;;0.70;;
66741;SDS011;53654;54.152;19.432;2023-10-08T02:29:08;1.00;;;0.80;;
66741;SDS011;53654;54.152;19.432;2023-10-08T02:31:41;1.40;;;0.90;;
66741;SDS011;53654;54.152;19.432;2023-10-08T02:34:10;2.20;;;0.90;;
66741;SDS011;53654;54.152;19.432;2023-10-08T02:36:40;1.40;;;0.90;;
66741;SDS011;53654;54.152;19.432;2023-10-08T02:39:11;1.10;;;0.80;;
66741;SDS011;53654;54.152;19.432;2023-10-08T02:42:05;1.60;;;0.90;;
66741;SDS011;53654;54.152;19.432;2023-10-08T02:44:38;1.60;;;0.80;;
66741;SDS011;53654;54.152;19.432;2023-10-08T02:47:09;1.00;;;0.80;;
66741;SDS011;53654;54.152;19.432;2023-10-08T02:49:44;1.90;;;0.70;;
66741;SDS011;53654;54.152;19.432;2023-10-08T02:52:12;2.70;;;0.70;;
66741;SDS011;53654;54.152;19.432;2023-10-08T02:54:40;1.20;;;0.70;;
66741;SDS011;53654;54.152;19.432;2023-10-08T02:57:09;1.90;;;0.70;;
66741;SDS011;53654;54.152;19.432;2023-10-08T02:59:42;1.50;;;0.60;;
66741;SDS011;53654;54.152;19.432;2023-10-08T03:02:13;2.40;;;0.90;;
66741;SDS011;53654;54.152;19.432;2023-10-08T03:04:51;1.50;;;0.80;;
66741;SDS011;53654;54.152;19.432;2023-10-08T03:07:21;1.30;;;0.90;;
66741;SDS011;53654;54.152;19.432;2023-10-08T03:09:51;2.30;;;0.90;;
66741;SDS011;53654;54.152;19.432;2023-10-08T03:12:40;1.50;;;0.80;;
66741;SDS011;53654;54.152;19.432;2023-10-08T03:15:11;1.20;;;0.60;;
66741;SDS011;53654;54.152;19.432;2023-10-08T03:17:42;2.50;;;0.80;;
66741;SDS011;53654;54.152;19.432;2023-10-08T03:20:17;1.70;;;0.90;;
66741;SDS011;53654;54.152;19.432;2023-10-08T03:23:05;1.70;;;0.90;;
66741;SDS011;53654;54.152;19.432;2023-10-08T03:25:41;2.00;;;1.10;;
66741;SDS011;53654;54.152;19.432;2023-10-08T03:28:09;1.80;;;0.90;;
66741;SDS011;53654;54.152;19.432;2023-10-08T03:30:40;1.50;;;0.80;;
66741;SDS011;53654;54.152;19.432;2023-10-08T03:33:19;1.00;;;0.90;;
66741;SDS011;53654;54.152;19.432;2023-10-08T03:35:52;1.20;;;1.00;;
66741;SDS011;53654;54.152;19.432;2023-10-08T03:38:21;2.60;;;0.90;;
66741;SDS011;53654;54.152;19.432;2023-10-08T03:40:56;1.90;;;1.10;;
66741;SDS011;53654;54.152;19.432;2023-10-08T03:43:37;5.10;;;1.40;;
66741;SDS011;53654;54.152;19.432;2023-10-08T03:46:23;6.50;;;1.70;;
66741;SDS011;53654;54.152;19.432;2023-10-08T03:48:54;4.70;;;1.80;;
66741;SDS011;53654;54.152;19.432;2023-10-08T03:51:25;4.80;;;1.60;;
66741;SDS011;53654;54.152;19.432;2023-10-08T03:53:55;1.70;;;1.10;;
66741;SDS011;53654;54.152;19.432;2023-10-08T03:56:28;2.40;;;0.90;;
66741;SDS011;53654;54.152;19.432;2023-10-08T03:59:00;2.00;;;0.90;;
66741;SDS011;53654;54.152;19.432;2023-10-08T04:01:28;2.50;;;1.00;;
66741;SDS011;53654;54.152;19.432;2023-10-08T04:04:00;1.80;;;0.90;;
66741;SDS011;53654;54.152;19.432;2023-10-08T04:06:28;1.80;;;0.90;;
66741;SDS011;53654;54.152;19.432;2023-10-08T04:08:59;1.80;;;1.00;;
66741;SDS011;53654;54.152;19.432;2023-10-08T04:11:38;2.00;;;1.00;;
66741;SDS011;53654;54.152;19.432;2023-10-08T04:14:24;2.30;;;1.00;;
66741;SDS011;53654;54.152;19.432;2023-10-08T04:16:53;2.50;;;1.10;;
66741;SDS011;53654;54.152;19.432;2023-10-08T04:19:22;1.70;;;1.00;;
66741;SDS011;53654;54.152;19.432;2023-10-08T04:21:57;1.20;;;0.90;;
66741;SDS011;53654;54.152;19.432;2023-10-08T04:24:26;2.10;;;1.00;;
66741;SDS011;53654;54.152;19.432;2023-10-08T04:27:12;1.90;;;1.00;;
66741;SDS011;53654;54.152;19.432;2023-10-08T04:29:43;1.90;;;1.00;;
66741;SDS011;53654;54.152;19.432;2023-10-08T04:32:14;1.50;;;0.80;;
66741;SDS011;53654;54.152;19.432;2023-10-08T04:34:50;1.40;;;0.80;;
66741;SDS011;53654;54.152;19.432;2023-10-08T04:37:20;1.40;;;0.90;;
66741;SDS011;53654;54.152;19.432;2023-10-08T04:39:48;1.90;;;0.90;;
66741;SDS011;53654;54.152;19.432;2023-10-08T04:42:26;1.30;;;0.80;;
66741;SDS011;53654;54.152;19.432;2023-10-08T04:44:54;2.50;;;0.80;;
66741;SDS011;53654;54.152;19.432;2023-10-08T04:47:23;1.60;;;0.80;;
66741;SDS011;53654;54.152;19.432;2023-10-08T04:50:00;1.40;;;0.80;;
66741;SDS011;53654;54.152;19.432;2023-10-08T04:52:32;1.90;;;0.90;;
66741;SDS011;53654;54.152;19.432;2023-10-08T04:55:02;1.20;;;0.80;;
66741;SDS011;53654;54.152;19.432;2023-10-08T04:57:43;1.20;;;0.80;;
66741;SDS011;53654;54.152;19.432;2023-10-08T05:00:11;1.10;;;0.80;;
66741;SDS011;53654;54.152;19.432;2023-10-08T05:02:43;1.40;;;0.90;;
66741;SDS011;53654;54.152;19.432;2023-10-08T05:05:18;1.40;;;0.80;;
66741;SDS011;53654;54.152;19.432;2023-10-08T05:07:47;1.90;;;1.00;;
66741;SDS011;53654;54.152;19.432;2023-10-08T05:10:16;0.80;;;0.80;;
66741;SDS011;53654;54.152;19.432;2023-10-08T05:13:04;1.50;;;0.80;;
66741;SDS011;53654;54.152;19.432;2023-10-08T05:15:33;1.20;;;0.90;;
66741;SDS011;53654;54.152;19.432;2023-10-08T05:18:04;1.80;;;0.70;;
66741;SDS011;53654;54.152;19.432;2023-10-08T05:20:51;1.90;;;1.00;;
66741;SDS011;53654;54.152;19.432;2023-10-08T05:23:19;1.80;;;1.00;;
66741;SDS011;53654;54.152;19.432;2023-10-08T05:26:08;3.20;;;1.80;;
66741;SDS011;53654;54.152;19.432;2023-10-08T05:28:36;3.40;;;2.40;;
66741;SDS011;53654;54.152;19.432;2023-10-08T05:31:25;3.70;;;1.90;;
66741;SDS011;53654;54.152;19.432;2023-10-08T05:34:12;2.70;;;1.40;;
66741;SDS011;53654;54.152;19.432;2023-10-08T05:37:00;2.30;;;1.50;;
66741;SDS011;53654;54.152;19.432;2023-10-08T05:39:28;1.90;;;1.40;;
66741;SDS011;53654;54.152;19.432;2023-10-08T05:42:10;1.90;;;1.20;;
66741;SDS011;53654;54.152;19.432;2023-10-08T05:44:56;2.70;;;1.20;;
66741;SDS011;53654;54.152;19.432;2023-10-08T05:47:37;1.80;;;1.30;;
66741;SDS011;53654;54.152;19.432;2023-10-08T05:50:05;1.20;;;1.10;;
66741;SDS011;53654;54.152;19.432;2023-10-08T05:52:46;2.90;;;1.10;;
66741;SDS011;53654;54.152;19.432;2023-10-08T05:55:20;1.90;;;1.00;;
66741;SDS011;53654;54.152;19.432;2023-10-08T05:57:55;2.20;;;1.20;;
66741;SDS011;53654;54.152;19.432;2023-10-08T06:00:53;2.00;;;1.10;;
66741;SDS011;53654;54.152;19.432;2023-10-08T06:03:37;1.80;;;1.10;;
66741;SDS011;53654;54.152;19.432;2023-10-08T06:06:15;3.40;;;1.30;;
66741;SDS011;53654;54.152;19.432;2023-10-08T06:08:44;2.30;;;1.10;;
66741;SDS011;53654;54.152;19.432;2023-10-08T06:11:33;1.90;;;1.20;;
66741;SDS011;53654;54.152;19.432;2023-10-08T06:14:33;1.50;;;1.10;;
66741;SDS011;53654;54.152;19.432;2023-10-08T06:17:20;1.90;;;1.20;;
66741;SDS011;53654;54.152;19.432;2023-10-08T06:20:02;2.20;;;1.00;;
66741;SDS011;53654;54.152;19.432;2023-10-08T06:22:37;2.00;;;1.20;;
66741;SDS011;53654;54.152;19.432;2023-10-08T06:25:06;2.30;;;1.30;;
66741;SDS011;53654;54.152;19.432;2023-10-08T06:27:52;2.50;;;1.40;;
66741;SDS011;53654;54.152;19.432;2023-10-08T06:30:24;1.70;;;1.60;;
66741;SDS011;53654;54.152;19.432;2023-10-08T06:32:57;2.90;;;1.90;;
66741;SDS011;53654;54.152;19.432;2023-10-08T06:35:25;2.30;;;1.60;;
66741;SDS011;53654;54.152;19.432;2023-10-08T06:37:55;1.40;;;1.20;;
66741;SDS011;53654;54.152;19.432;2023-10-08T06:40:27;2.40;;;1.50;;
66741;SDS011;53654;54.152;19.432;2023-10-08T06:43:04;3.20;;;1.80;;
66741;SDS011;53654;54.152;19.432;2023-10-08T06:45:50;2.40;;;2.00;;
66741;SDS011;53654;54.152;19.432;2023-10-08T06:48:22;2.70;;;1.60;;
66741;SDS011;53654;54.152;19.432;2023-10-08T06:50:54;2.10;;;1.30;;
66741;SDS011;53654;54.152;19.432;2023-10-08T06:53:25;2.50;;;1.40;;
66741;SDS011;53654;54.152;19.432;2023-10-08T06:55:54;1.90;;;1.40;;
66741;SDS011;53654;54.152;19.432;2023-10-08T06:58:25;3.30;;;1.40;;
66741;SDS011;53654;54.152;19.432;2023-10-08T07:00:53;2.50;;;1.10;;
66741;SDS011;53654;54.152;19.432;2023-10-08T07:03:23;1.10;;;0.70;;
66741;SDS011;53654;54.152;19.432;2023-10-08T07:05:53;2.30;;;1.00;;
66741;SDS011;53654;54.152;19.432;2023-10-08T07:08:22;2.00;;;1.00;;
66741;SDS011;53654;54.152;19.432;2023-10-08T07:10:52;1.50;;;1.00;;
66741;SDS011;53654;54.152;19.432;2023-10-08T07:13:21;1.80;;;0.90;;
66741;SDS011;53654;54.152;19.432;2023-10-08T07:15:52;1.90;;;0.80;;
66741;SDS011;53654;54.152;19.432;2023-10-08T07:18:20;2.50;;;1.00;;
66741;SDS011;53654;54.152;19.432;2023-10-08T07:20:55;2.10;;;1.00;;
66741;SDS011;53654;54.152;19.432;2023-10-08T07:23:28;1.00;;;0.90;;
66741;SDS011;53654;54.152;19.432;2023-10-08T07:26:01;1.50;;;1.00;;
66741;SDS011;53654;54.152;19.432;2023-10-08T07:28:52;2.10;;;1.10;;
66741;SDS011;53654;54.152;19.432;2023-10-08T07:31:21;1.50;;;1.00;;
66741;SDS011;53654;54.152;19.432;2023-10-08T07:33:53;1.50;;;1.00;;
66741;SDS011;53654;54.152;19.432;2023-10-08T07:36:45;2.30;;;0.90;;
66741;SDS011;53654;54.152;19.432;2023-10-08T07:39:15;2.80;;;0.90;;
66741;SDS011;53654;54.152;19.432;2023-10-08T07:41:53;2.00;;;0.90;;
66741;SDS011;53654;54.152;19.432;2023-10-08T07:44:22;1.90;;;0.90;;
66741;SDS011;53654;54.152;19.432;2023-10-08T07:46:52;1.70;;;1.10;;
66741;SDS011;53654;54.152;19.432;2023-10-08T07:49:24;2.80;;;1.20;;
66741;SDS011;53654;54.152;19.432;2023-10-08T07:51:58;1.40;;;0.80;;
66741;SDS011;53654;54.152;19.432;2023-10-08T07:54:27;2.00;;;0.90;;
66741;SDS011;53654;54.152;19.432;2023-10-08T07:56:55;1.30;;;0.90;;
66741;SDS011;53654;54.152;19.432;2023-10-08T07:59:40;2.20;;;1.00;;
66741;SDS011;53654;54.152;19.432;2023-10-08T08:02:09;1.30;;;0.80;;
66741;SDS011;53654;54.152;19.432;2023-10-08T08:04:39;1.60;;;1.00;;
66741;SDS011;53654;54.152;19.432;2023-10-08T08:07:10;3.50;;;1.10;;
66741;SDS011;53654;54.152;19.432;2023-10-08T08:09:44;3.20;;;1.50;;
66741;SDS011;53654;54.152;19.432;2023-10-08T08:12:20;3.50;;;1.10;;
66741;SDS011;53654;54.152;19.432;2023-10-08T08:14:53;2.40;;;1.00;;
66741;SDS011;53654;54.152;19.432;2023-10-08T08:17:22;1.60;;;0.90;;
66741;SDS011;53654;54.152;19.432;2023-10-08T08:19:52;1.80;;;1.00;;
66741;SDS011;53654;54.152;19.432;2023-10-08T08:22:21;3.60;;;0.90;;
66741;SDS011;53654;54.152;19.432;2023-10-08T08:24:51;5.50;;;1.30;;
66741;SDS011;53654;54.152;19.432;2023-10-08T08:27:32;2.30;;;1.10;;
66741;SDS011;53654;54.152;19.432;2023-10-08T08:30:01;2.00;;;1.00;;
66741;SDS011;53654;54.152;19.432;2023-10-08T08:32:38;2.60;;;0.80;;
66741;SDS011;53654;54.152;19.432;2023-10-08T08:35:08;1.30;;;0.90;;
66741;SDS011;53654;54.152;19.432;2023-10-08T08:37:37;2.40;;;1.00;;
66741;SDS011;53654;54.152;19.432;2023-10-08T08:40:07;2.20;;;1.00;;
66741;SDS011;53654;54.152;19.432;2023-10-08T08:42:37;2.40;;;0.90;;
66741;SDS011;53654;54.152;19.432;2023-10-08T08:45:06;1.80;;;0.90;;
66741;SDS011;53654;54.152;19.432;2023-10-08T08:47:38;1.40;;;1.00;;
66741;SDS011;53654;54.152;19.432;2023-10-08T08:50:11;1.50;;;0.90;;
66741;SDS011;53654;54.152;19.432;2023-10-08T08:52:40;1.60;;;0.90;;
66741;SDS011;53654;54.152;19.432;2023-10-08T08:55:09;1.70;;;1.00;;
66741;SDS011;53654;54.152;19.432;2023-10-08T08:57:49;1.50;;;0.90;;
66741;SDS011;53654;54.152;19.432;2023-10-08T09:00:19;1.90;;;1.00;;
66741;SDS011;53654;54.152;19.432;2023-10-08T09:02:48;1.30;;;1.00;;
66741;SDS011;53654;54.152;19.432;2023-10-08T09:05:18;2.20;;;1.50;;
66741;SDS011;53654;54.152;19.432;2023-10-08T09:10:25;2.50;;;1.60;;
66741;SDS011;53654;54.152;19.432;2023-10-08T09:12:58;3.30;;;1.70;;
66741;SDS011;53654;54.152;19.432;2023-10-08T09:15:28;2.00;;;1.30;;
66741;SDS011;53654;54.152;19.432;2023-10-08T09:17:56;2.20;;;1.30;;
66741;SDS011;53654;54.152;19.432;2023-10-08T09:20:25;2.40;;;1.10;;
66741;SDS011;53654;54.152;19.432;2023-10-08T09:23:08;2.90;;;0.90;;
66741;SDS011;53654;54.152;19.432;2023-10-08T09:25:42;1.50;;;1.00;;
66741;SDS011;53654;54.152;19.432;2023-10-08T09:28:11;2.60;;;1.40;;
66741;SDS011;53654;54.152;19.432;2023-10-08T09:30:43;1.50;;;1.30;;
66741;SDS011;53654;54.152;19.432;2023-10-08T09:33:14;1.60;;;1.10;;
66741;SDS011;53654;54.152;19.432;2023-10-08T09:35:43;3.90;;;2.50;;
66741;SDS011;53654;54.152;19.432;2023-10-08T09:38:13;1.70;;;0.90;;
66741;SDS011;53654;54.152;19.432;2023-10-08T09:40:50;1.00;;;0.90;;
66741;SDS011;53654;54.152;19.432;2023-10-08T09:43:22;1.10;;;0.80;;
66741;SDS011;53654;54.152;19.432;2023-10-08T09:45:52;2.10;;;1.10;;
66741;SDS011;53654;54.152;19.432;2023-10-08T09:48:25;2.80;;;1.10;;
66741;SDS011;53654;54.152;19.432;2023-10-08T09:50:55;1.70;;;0.90;;
66741;SDS011;53654;54.152;19.432;2023-10-08T09:53:30;2.30;;;1.00;;
66741;SDS011;53654;54.152;19.432;2023-10-08T09:56:12;1.50;;;0.90;;
66741;SDS011;53654;54.152;19.432;2023-10-08T09:58:43;2.50;;;1.30;;
66741;SDS011;53654;54.152;19.432;2023-10-08T10:01:13;2.10;;;1.00;;
66741;SDS011;53654;54.152;19.432;2023-10-08T10:03:41;2.10;;;1.10;;
66741;SDS011;53654;54.152;19.432;2023-10-08T10:06:14;2.00;;;0.90;;
66741;SDS011;53654;54.152;19.432;2023-10-08T10:08:45;1.20;;;1.10;;
66741;SDS011;53654;54.152;19.432;2023-10-08T10:11:15;1.90;;;0.90;;
66741;SDS011;53654;54.152;19.432;2023-10-08T10:13:45;1.10;;;0.80;;
66741;SDS011;53654;54.152;19.432;2023-10-08T10:16:17;2.30;;;1.00;;
66741;SDS011;53654;54.152;19.432;2023-10-08T10:18:48;1.50;;;1.00;;
66741;SDS011;53654;54.152;19.432;2023-10-08T10:23:46;3.00;;;1.00;;
66741;SDS011;53654;54.152;19.432;2023-10-08T10:31:46;1.90;;;1.00;;
66741;SDS011;53654;54.152;19.432;2023-10-08T10:34:18;2.00;;;1.10;;
66741;SDS011;53654;54.152;19.432;2023-10-08T10:36:58;3.90;;;1.50;;
66741;SDS011;53654;54.152;19.432;2023-10-08T10:39:30;2.00;;;1.00;;
66741;SDS011;53654;54.152;19.432;2023-10-08T10:42:01;2.80;;;0.90;;
66741;SDS011;53654;54.152;19.432;2023-10-08T10:44:31;2.30;;;1.10;;
66741;SDS011;53654;54.152;19.432;2023-10-08T10:47:01;1.90;;;1.10;;
66741;SDS011;53654;54.152;19.432;2023-10-08T10:49:44;2.50;;;0.90;;
66741;SDS011;53654;54.152;19.432;2023-10-08T10:52:24;2.50;;;0.90;;
66741;SDS011;53654;54.152;19.432;2023-10-08T10:55:15;2.90;;;1.20;;
66741;SDS011;53654;54.152;19.432;2023-10-08T10:57:55;2.20;;;1.00;;
66741;SDS011;53654;54.152;19.432;2023-10-08T11:00:31;1.60;;;1.00;;
66741;SDS011;53654;54.152;19.432;2023-10-08T11:03:01;2.30;;;1.00;;
66741;SDS011;53654;54.152;19.432;2023-10-08T11:05:33;1.40;;;0.90;;
66741;SDS011;53654;54.152;19.432;2023-10-08T11:08:05;2.50;;;1.20;;
66741;SDS011;53654;54.152;19.432;2023-10-08T11:10:36;2.00;;;1.10;;
66741;SDS011;53654;54.152;19.432;2023-10-08T11:13:14;0.90;;;0.70;;
66741;SDS011;53654;54.152;19.432;2023-10-08T11:15:44;3.10;;;1.10;;
66741;SDS011;53654;54.152;19.432;2023-10-08T11:18:18;2.50;;;1.10;;
66741;SDS011;53654;54.152;19.432;2023-10-08T11:20:49;2.60;;;1.10;;
66741;SDS011;53654;54.152;19.432;2023-10-08T11:26:37;3.30;;;1.10;;
66741;SDS011;53654;54.152;19.432;2023-10-08T11:29:22;2.50;;;0.90;;
66741;SDS011;53654;54.152;19.432;2023-10-08T11:31:53;2.30;;;1.00;;
66741;SDS011;53654;54.152;19.432;2023-10-08T11:34:21;3.10;;;1.30;;
66741;SDS011;53654;54.152;19.432;2023-10-08T11:36:52;2.40;;;1.00;;
66741;SDS011;53654;54.152;19.432;2023-10-08T11:39:21;1.90;;;1.10;;
66741;SDS011;53654;54.152;19.432;2023-10-08T11:42:00;3.30;;;1.20;;
66741;SDS011;53654;54.152;19.432;2023-10-08T11:44:53;1.70;;;1.20;;
66741;SDS011;53654;54.152;19.432;2023-10-08T11:47:22;2.40;;;0.90;;
66741;SDS011;53654;54.152;19.432;2023-10-08T11:49:50;3.00;;;1.50;;
66741;SDS011;53654;54.152;19.432;2023-10-08T11:52:22;3.00;;;1.60;;
66741;SDS011;53654;54.152;19.432;2023-10-08T11:54:51;2.10;;;1.10;;
66741;SDS011;53654;54.152;19.432;2023-10-08T11:57:21;3.20;;;1.10;;
66741;SDS011;53654;54.152;19.432;2023-10-08T11:59:50;2.50;;;1.00;;
66741;SDS011;53654;54.152;19.432;2023-10-08T12:02:23;2.40;;;1.10;;
66741;SDS011;53654;54.152;19.432;2023-10-08T12:04:51;3.40;;;1.30;;
66741;SDS011;53654;54.152;19.432;2023-10-08T12:07:20;3.30;;;1.10;;
66741;SDS011;53654;54.152;19.432;2023-10-08T12:09:48;1.70;;;1.10;;
66741;SDS011;53654;54.152;19.432;2023-10-08T12:12:16;1.90;;;1.00;;
66741;SDS011;53654;54.152;19.432;2023-10-08T12:14:50;2.90;;;1.20;;
66741;SDS011;53654;54.152;19.432;2023-10-08T12:17:22;1.40;;;0.90;;
66741;SDS011;53654;54.152;19.432;2023-10-08T12:20:06;1.90;;;0.90;;
66741;SDS011;53654;54.152;19.432;2023-10-08T12:22:51;1.90;;;1.20;;
66741;SDS011;53654;54.152;19.432;2023-10-08T12:25:20;2.30;;;1.00;;
66741;SDS011;53654;54.152;19.432;2023-10-08T12:27:48;1.90;;;1.00;;
66741;SDS011;53654;54.152;19.432;2023-10-08T12:30:17;1.30;;;1.00;;
66741;SDS011;53654;54.152;19.432;2023-10-08T12:32:45;1.60;;;1.30;;
66741;SDS011;53654;54.152;19.432;2023-10-08T12:35:14;3.70;;;1.30;;
66741;SDS011;53654;54.152;19.432;2023-10-08T12:37:42;2.70;;;1.10;;
66741;SDS011;53654;54.152;19.432;2023-10-08T12:40:12;2.60;;;1.20;;
66741;SDS011;53654;54.152;19.432;2023-10-08T12:42:40;2.80;;;1.20;;
66741;SDS011;53654;54.152;19.432;2023-10-08T12:45:11;1.60;;;0.90;;
66741;SDS011;53654;54.152;19.432;2023-10-08T12:47:40;2.80;;;1.10;;
66741;SDS011;53654;54.152;19.432;2023-10-08T12:50:10;3.40;;;1.30;;
66741;SDS011;53654;54.152;19.432;2023-10-08T12:52:43;2.40;;;1.00;;
66741;SDS011;53654;54.152;19.432;2023-10-08T12:55:21;2.20;;;1.20;;
66741;SDS011;53654;54.152;19.432;2023-10-08T12:57:53;1.90;;;1.10;;
66741;SDS011;53654;54.152;19.432;2023-10-08T13:00:33;4.40;;;1.20;;
66741;SDS011;53654;54.152;19.432;2023-10-08T13:03:02;3.40;;;1.40;;
66741;SDS011;53654;54.152;19.432;2023-10-08T13:05:33;2.10;;;1.10;;
66741;SDS011;53654;54.152;19.432;2023-10-08T13:08:02;4.30;;;1.20;;
66741;SDS011;53654;54.152;19.432;2023-10-08T13:10:37;1.60;;;1.10;;
66741;SDS011;53654;54.152;19.432;2023-10-08T13:13:09;2.60;;;1.20;;
66741;SDS011;53654;54.152;19.432;2023-10-08T13:15:41;3.10;;;1.20;;
66741;SDS011;53654;54.152;19.432;2023-10-08T13:18:09;2.30;;;1.20;;
66741;SDS011;53654;54.152;19.432;2023-10-08T13:20:38;3.00;;;1.10;;
66741;SDS011;53654;54.152;19.432;2023-10-08T13:23:08;2.80;;;1.20;;
66741;SDS011;53654;54.152;19.432;2023-10-08T13:25:37;2.30;;;1.10;;
66741;SDS011;53654;54.152;19.432;2023-10-08T13:28:07;2.30;;;1.20;;
66741;SDS011;53654;54.152;19.432;2023-10-08T13:30:37;2.30;;;1.30;;
66741;SDS011;53654;54.152;19.432;2023-10-08T13:33:06;2.20;;;1.10;;
66741;SDS011;53654;54.152;19.432;2023-10-08T13:35:36;1.90;;;1.10;;
66741;SDS011;53654;54.152;19.432;2023-10-08T13:38:05;2.50;;;1.10;;
66741;SDS011;53654;54.152;19.432;2023-10-08T13:40:37;3.10;;;1.10;;
66741;SDS011;53654;54.152;19.432;2023-10-08T13:43:11;1.60;;;0.90;;
66741;SDS011;53654;54.152;19.432;2023-10-08T13:45:40;3.20;;;1.20;;
66741;SDS011;53654;54.152;19.432;2023-10-08T13:48:09;4.20;;;1.40;;
66741;SDS011;53654;54.152;19.432;2023-10-08T13:50:42;3.20;;;1.20;;
66741;SDS011;53654;54.152;19.432;2023-10-08T13:53:11;2.50;;;1.40;;
66741;SDS011;53654;54.152;19.432;2023-10-08T13:55:41;3.00;;;1.40;;
66741;SDS011;53654;54.152;19.432;2023-10-08T13:58:13;4.80;;;1.40;;
66741;SDS011;53654;54.152;19.432;2023-10-08T14:00:41;3.40;;;1.10;;
66741;SDS011;53654;54.152;19.432;2023-10-08T14:03:09;2.70;;;1.00;;
66741;SDS011;53654;54.152;19.432;2023-10-08T14:05:39;2.20;;;1.20;;
66741;SDS011;53654;54.152;19.432;2023-10-08T14:08:08;3.10;;;1.20;;
66741;SDS011;53654;54.152;19.432;2023-10-08T14:10:44;2.40;;;1.20;;
66741;SDS011;53654;54.152;19.432;2023-10-08T14:13:13;1.40;;;1.00;;
66741;SDS011;53654;54.152;19.432;2023-10-08T14:15:41;1.50;;;1.20;;
66741;SDS011;53654;54.152;19.432;2023-10-08T14:18:14;2.20;;;1.10;;
66741;SDS011;53654;54.152;19.432;2023-10-08T14:20:45;1.60;;;1.20;;
66741;SDS011;53654;54.152;19.432;2023-10-08T14:23:14;2.10;;;1.10;;
66741;SDS011;53654;54.152;19.432;2023-10-08T14:25:44;2.90;;;1.00;;
66741;SDS011;53654;54.152;19.432;2023-10-08T14:28:13;2.20;;;0.90;;
66741;SDS011;53654;54.152;19.432;2023-10-08T14:30:49;2.40;;;1.20;;
66741;SDS011;53654;54.152;19.432;2023-10-08T14:33:23;2.20;;;1.10;;
66741;SDS011;53654;54.152;19.432;2023-10-08T14:35:52;2.00;;;1.00;;
66741;SDS011;53654;54.152;19.432;2023-10-08T14:38:39;2.30;;;1.10;;
66741;SDS011;53654;54.152;19.432;2023-10-08T14:41:25;1.80;;;1.10;;
66741;SDS011;53654;54.152;19.432;2023-10-08T14:44:12;2.90;;;1.00;;
66741;SDS011;53654;54.152;19.432;2023-10-08T14:46:42;1.40;;;1.10;;
66741;SDS011;53654;54.152;19.432;2023-10-08T14:49:10;3.00;;;1.30;;
66741;SDS011;53654;54.152;19.432;2023-10-08T14:51:38;2.70;;;1.40;;
66741;SDS011;53654;54.152;19.432;2023-10-08T14:54:10;2.00;;;1.00;;
66741;SDS011;53654;54.152;19.432;2023-10-08T14:56:39;3.00;;;1.30;;
66741;SDS011;53654;54.152;19.432;2023-10-08T14:59:07;2.10;;;1.00;;
66741;SDS011;53654;54.152;19.432;2023-10-08T15:01:35;2.00;;;1.10;;
66741;SDS011;53654;54.152;19.432;2023-10-08T15:04:04;1.80;;;1.20;;
66741;SDS011;53654;54.152;19.432;2023-10-08T15:06:32;2.00;;;1.20;;
66741;SDS011;53654;54.152;19.432;2023-10-08T15:09:00;1.90;;;1.10;;
66741;SDS011;53654;54.152;19.432;2023-10-08T15:11:29;1.50;;;1.40;;
66741;SDS011;53654;54.152;19.432;2023-10-08T15:13:59;2.70;;;1.20;;
66741;SDS011;53654;54.152;19.432;2023-10-08T15:16:28;2.70;;;1.10;;
66741;SDS011;53654;54.152;19.432;2023-10-08T15:18:56;2.40;;;1.00;;
66741;SDS011;53654;54.152;19.432;2023-10-08T15:21:25;1.60;;;0.90;;